Charter Quote
Worldwide +44-20-3874-8091 Call
Select Language Lang
SAFETY RELIABILITY EXPERIENCE

Kisarazu Airport (RJTK) - Jet Charter Services

AIRPORT INFORMATION
ICAORJTK
LOCATIONHonshu Island, Japan
FACILITY TYPEAIRPORT
Runway Length (ft) Width (ft) Surface Type Elevation (ft)
20/02 6004 150 ASP 10.00000

At Paramount Business Jets you can hire chartered private jets to and from Kisarazu Airport with as little as 4 hours of notice. All flights booked via Paramount Business Jets are operated by certified direct air carriers that meet and exceed the FAA part 135 and 121 protocol or a foreign equivalent safety authority. Furthermore, Paramount Business Jets subscribes to ARGUS for their third party safety checks of operators, aircraft, and crews prior each and every flight to and from Kisarazu Airport and worldwide.

  • Quote a trip using Kisarazu Airport or call us 24/7 - 365 days a year at +44-20-3874-8091.
Questions? Call +44-20-3874-8091

METAR Weather Data at Kisarazu Airport, RJTK

STATIONRJTK
OBSERVEDSun Jan 20, 22:45 UTC
NOWWed Jan 23, 21:49 UTC
AGE71:04 hr ago
WINDN at 15 mph
VISIBILITY16 miles
CLOUDSscattered clouds
TEMP41°F (5°C)
WIND CHILL33°F (1°C)
DEWPT18°F (-8°C)
HUMIDITY39%
BAROMETER1011 hPa (29.85 in Hg)
METARRJTK 202245Z 35013KT 9999 FEW030 SCT050 05/M08 Q1011 RMK 1CU030 3SC050 A2986

Call us on +44-20-3874-8091 (24 Hours) to Hire a Private Jet or Get a Quick Quote.

Find Airports Near any Location

Processing
...